NCAR-RAP Real-Time Weather Data

Output produced by METARs form (10 April 2020  07:06 UTC)
found at http://weather.rap.ucar.edu/surface/
 
KBGR 100653Z 33024KT 1/2SM R15/4000V5000FT SN FG VV006 01/M01 A2884 RMK AO2 PK WND 32030/0637 SLP769 P0004 T00061011